sensor_id;sensor_type;location;lat;lon;timestamp;temperature;humidity
69009;SHT31;56065;52.472;13.380;2023-05-08T00:00:27;9.22;77.44
69009;SHT31;56065;52.472;13.380;2023-05-08T00:02:52;9.21;77.55
69009;SHT31;56065;52.472;13.380;2023-05-08T00:05:17;9.22;77.51
69009;SHT31;56065;52.472;13.380;2023-05-08T00:07:43;9.18;77.55
69009;SHT31;56065;52.472;13.380;2023-05-08T00:10:09;9.15;77.73
69009;SHT31;56065;52.472;13.380;2023-05-08T00:12:35;9.14;77.71
69009;SHT31;56065;52.472;13.380;2023-05-08T00:15:01;9.10;78.00
69009;SHT31;56065;52.472;13.380;2023-05-08T00:17:27;9.04;77.84
69009;SHT31;56065;52.472;13.380;2023-05-08T00:19:53;9.05;77.95
69009;SHT31;56065;52.472;13.380;2023-05-08T00:22:18;9.01;78.12
69009;SHT31;56065;52.472;13.380;2023-05-08T00:24:44;9.00;78.16
69009;SHT31;56065;52.472;13.380;2023-05-08T00:27:10;8.94;78.42
69009;SHT31;56065;52.472;13.380;2023-05-08T00:29:35;8.93;78.22
69009;SHT31;56065;52.472;13.380;2023-05-08T00:32:01;8.91;78.41
69009;SHT31;56065;52.472;13.380;2023-05-08T00:34:26;8.93;78.40
69009;SHT31;56065;52.472;13.380;2023-05-08T00:36:52;8.88;78.58
69009;SHT31;56065;52.472;13.380;2023-05-08T00:39:17;8.90;78.47
69009;SHT31;56065;52.472;13.380;2023-05-08T00:41:42;8.87;78.35
69009;SHT31;56065;52.472;13.380;2023-05-08T00:44:08;8.90;78.58
69009;SHT31;56065;52.472;13.380;2023-05-08T00:46:34;8.88;78.72
69009;SHT31;56065;52.472;13.380;2023-05-08T00:49:01;8.90;78.49
69009;SHT31;56065;52.472;13.380;2023-05-08T00:51:27;8.85;78.57
69009;SHT31;56065;52.472;13.380;2023-05-08T00:53:53;8.80;78.86
69009;SHT31;56065;52.472;13.380;2023-05-08T00:56:19;8.83;78.75
69009;SHT31;56065;52.472;13.380;2023-05-08T00:58:46;8.79;78.91
69009;SHT31;56065;52.472;13.380;2023-05-08T01:01:13;8.77;78.79
69009;SHT31;56065;52.472;13.380;2023-05-08T01:03:39;8.74;78.86
69009;SHT31;56065;52.472;13.380;2023-05-08T01:06:05;8.73;78.90
69009;SHT31;56065;52.472;13.380;2023-05-08T01:08:31;8.73;78.92
69009;SHT31;56065;52.472;13.380;2023-05-08T01:11:09;8.62;79.05
69009;SHT31;56065;52.472;13.380;2023-05-08T01:20:25;8.48;79.36
69009;SHT31;56065;52.472;13.380;2023-05-08T01:23:16;8.41;79.56
69009;SHT31;56065;52.472;13.380;2023-05-08T01:26:06;8.35;79.69
69009;SHT31;56065;52.472;13.380;2023-05-08T01:34:07;8.26;79.87
69009;SHT31;56065;52.472;13.380;2023-05-08T01:36:54;8.18;79.88
69009;SHT31;56065;52.472;13.380;2023-05-08T01:42:05;8.20;79.94
69009;SHT31;56065;52.472;13.380;2023-05-08T01:44:42;8.20;80.13
69009;SHT31;56065;52.472;13.380;2023-05-08T01:47:10;8.13;80.27
69009;SHT31;56065;52.472;13.380;2023-05-08T01:49:44;8.16;80.33
69009;SHT31;56065;52.472;13.380;2023-05-08T01:52:19;8.18;80.12
69009;SHT31;56065;52.472;13.380;2023-05-08T01:55:09;8.09;80.40
69009;SHT31;56065;52.472;13.380;2023-05-08T01:57:39;8.06;80.32
69009;SHT31;56065;52.472;13.380;2023-05-08T02:00:07;8.05;80.33
69009;SHT31;56065;52.472;13.380;2023-05-08T02:02:33;7.97;80.36
69009;SHT31;56065;52.472;13.380;2023-05-08T02:05:01;7.98;80.40
69009;SHT31;56065;52.472;13.380;2023-05-08T02:07:29;7.91;80.69
69009;SHT31;56065;52.472;13.380;2023-05-08T02:09:56;7.92;80.70
69009;SHT31;56065;52.472;13.380;2023-05-08T02:12:22;7.91;80.52
69009;SHT31;56065;52.472;13.380;2023-05-08T02:14:50;7.91;80.89
69009;SHT31;56065;52.472;13.380;2023-05-08T02:17:17;7.88;80.89
69009;SHT31;56065;52.472;13.380;2023-05-08T02:19:43;7.87;80.93
69009;SHT31;56065;52.472;13.380;2023-05-08T02:22:10;7.87;80.83
69009;SHT31;56065;52.472;13.380;2023-05-08T02:24:37;7.81;80.91
69009;SHT31;56065;52.472;13.380;2023-05-08T02:27:02;7.84;80.76
69009;SHT31;56065;52.472;13.380;2023-05-08T02:29:29;7.85;80.89
69009;SHT31;56065;52.472;13.380;2023-05-08T02:31:55;7.82;80.60
69009;SHT31;56065;52.472;13.380;2023-05-08T02:34:22;7.82;80.57
69009;SHT31;56065;52.472;13.380;2023-05-08T02:36:49;7.77;80.57
69009;SHT31;56065;52.472;13.380;2023-05-08T02:39:17;7.78;80.46
69009;SHT31;56065;52.472;13.380;2023-05-08T02:41:43;7.74;80.74
69009;SHT31;56065;52.472;13.380;2023-05-08T02:44:09;7.74;80.54
69009;SHT31;56065;52.472;13.380;2023-05-08T02:46:45;7.73;80.62
69009;SHT31;56065;52.472;13.380;2023-05-08T02:51:56;7.69;80.67
69009;SHT31;56065;52.472;13.380;2023-05-08T02:54:34;7.66;81.03
69009;SHT31;56065;52.472;13.380;2023-05-08T02:57:07;7.63;81.08
69009;SHT31;56065;52.472;13.380;2023-05-08T02:59:37;7.61;81.00
69009;SHT31;56065;52.472;13.380;2023-05-08T03:02:17;7.59;81.24
69009;SHT31;56065;52.472;13.380;2023-05-08T03:04:49;7.56;81.38
69009;SHT31;56065;52.472;13.380;2023-05-08T03:07:20;7.49;81.54
69009;SHT31;56065;52.472;13.380;2023-05-08T03:09:50;7.47;81.22
69009;SHT31;56065;52.472;13.380;2023-05-08T03:12:23;7.42;81.44
69009;SHT31;56065;52.472;13.380;2023-05-08T03:15:05;7.33;81.76
69009;SHT31;56065;52.472;13.380;2023-05-08T03:17:32;7.29;81.66
69009;SHT31;56065;52.472;13.380;2023-05-08T03:20:04;7.22;81.85
69009;SHT31;56065;52.472;13.380;2023-05-08T03:22:33;7.24;81.62
69009;SHT31;56065;52.472;13.380;2023-05-08T03:25:01;7.18;82.04
69009;SHT31;56065;52.472;13.380;2023-05-08T03:27:29;7.12;81.99
69009;SHT31;56065;52.472;13.380;2023-05-08T03:29:56;7.12;82.18
69009;SHT31;56065;52.472;13.380;2023-05-08T03:32:25;7.10;82.10
69009;SHT31;56065;52.472;13.380;2023-05-08T03:34:52;7.08;82.21
69009;SHT31;56065;52.472;13.380;2023-05-08T03:37:18;7.02;82.04
69009;SHT31;56065;52.472;13.380;2023-05-08T03:39:43;7.01;82.24
69009;SHT31;56065;52.472;13.380;2023-05-08T03:42:10;7.03;82.37
69009;SHT31;56065;52.472;13.380;2023-05-08T03:44:41;6.96;82.63
69009;SHT31;56065;52.472;13.380;2023-05-08T03:47:07;6.96;82.69
69009;SHT31;56065;52.472;13.380;2023-05-08T03:49:32;6.95;82.64
69009;SHT31;56065;52.472;13.380;2023-05-08T03:51:59;6.98;82.51
69009;SHT31;56065;52.472;13.380;2023-05-08T03:54:25;6.96;82.85
69009;SHT31;56065;52.472;13.380;2023-05-08T03:56:53;6.98;82.54
69009;SHT31;56065;52.472;13.380;2023-05-08T04:04:38;7.02;82.88
69009;SHT31;56065;52.472;13.380;2023-05-08T04:07:09;7.02;82.90
69009;SHT31;56065;52.472;13.380;2023-05-08T04:09:43;7.03;83.01
69009;SHT31;56065;52.472;13.380;2023-05-08T04:12:17;7.08;82.72
69009;SHT31;56065;52.472;13.380;2023-05-08T04:14:55;7.12;82.63
69009;SHT31;56065;52.472;13.380;2023-05-08T04:20:32;7.18;83.12
69009;SHT31;56065;52.472;13.380;2023-05-08T04:22:58;7.23;82.94
69009;SHT31;56065;52.472;13.380;2023-05-08T04:25:25;7.26;83.13
69009;SHT31;56065;52.472;13.380;2023-05-08T04:27:51;7.33;83.06
69009;SHT31;56065;52.472;13.380;2023-05-08T04:30:17;7.40;82.81
69009;SHT31;56065;52.472;13.380;2023-05-08T04:32:43;7.44;82.73
69009;SHT31;56065;52.472;13.380;2023-05-08T04:35:09;7.44;82.62
69009;SHT31;56065;52.472;13.380;2023-05-08T04:37:35;7.53;82.61
69009;SHT31;56065;52.472;13.380;2023-05-08T04:40:00;7.50;82.92
69009;SHT31;56065;52.472;13.380;2023-05-08T04:42:26;7.56;82.41
69009;SHT31;56065;52.472;13.380;2023-05-08T04:44:53;7.60;82.30
69009;SHT31;56065;52.472;13.380;2023-05-08T04:47:18;7.74;82.00
69009;SHT31;56065;52.472;13.380;2023-05-08T04:49:44;7.82;81.64
69009;SHT31;56065;52.472;13.380;2023-05-08T04:52:10;7.94;81.23
69009;SHT31;56065;52.472;13.380;2023-05-08T04:54:35;7.99;81.01
69009;SHT31;56065;52.472;13.380;2023-05-08T04:57:01;8.11;80.67
69009;SHT31;56065;52.472;13.380;2023-05-08T04:59:26;8.18;80.07
69009;SHT31;56065;52.472;13.380;2023-05-08T05:01:53;8.22;79.57
69009;SHT31;56065;52.472;13.380;2023-05-08T05:04:20;8.36;79.06
69009;SHT31;56065;52.472;13.380;2023-05-08T05:06:46;8.41;78.35
69009;SHT31;56065;52.472;13.380;2023-05-08T05:09:11;8.50;78.27
69009;SHT31;56065;52.472;13.380;2023-05-08T05:11:36;8.53;78.27
69009;SHT31;56065;52.472;13.380;2023-05-08T05:14:02;8.66;77.42
69009;SHT31;56065;52.472;13.380;2023-05-08T05:16:27;8.66;77.31
69009;SHT31;56065;52.472;13.380;2023-05-08T05:18:52;8.73;76.98
69009;SHT31;56065;52.472;13.380;2023-05-08T05:21:18;8.83;76.96
69009;SHT31;56065;52.472;13.380;2023-05-08T05:23:44;8.88;76.45
69009;SHT31;56065;52.472;13.380;2023-05-08T05:26:09;8.96;76.29
69009;SHT31;56065;52.472;13.380;2023-05-08T05:28:34;9.01;76.38
69009;SHT31;56065;52.472;13.380;2023-05-08T05:31:00;9.11;76.35
69009;SHT31;56065;52.472;13.380;2023-05-08T05:33:25;9.10;75.61
69009;SHT31;56065;52.472;13.380;2023-05-08T05:35:51;9.14;75.24
69009;SHT31;56065;52.472;13.380;2023-05-08T05:38:16;9.22;75.38
69009;SHT31;56065;52.472;13.380;2023-05-08T05:40:42;9.30;74.86
69009;SHT31;56065;52.472;13.380;2023-05-08T05:43:07;9.39;74.30
69009;SHT31;56065;52.472;13.380;2023-05-08T05:45:33;9.51;74.38
69009;SHT31;56065;52.472;13.380;2023-05-08T05:47:58;9.53;74.56
69009;SHT31;56065;52.472;13.380;2023-05-08T05:50:23;9.68;73.77
69009;SHT31;56065;52.472;13.380;2023-05-08T05:52:51;9.66;73.62
69009;SHT31;56065;52.472;13.380;2023-05-08T05:55:16;9.83;73.67
69009;SHT31;56065;52.472;13.380;2023-05-08T05:57:42;10.06;73.09
69009;SHT31;56065;52.472;13.380;2023-05-08T06:00:07;10.33;72.10
69009;SHT31;56065;52.472;13.380;2023-05-08T06:02:35;10.58;71.07
69009;SHT31;56065;52.472;13.380;2023-05-08T06:05:00;10.98;70.53
69009;SHT31;56065;52.472;13.380;2023-05-08T06:07:25;11.46;68.47
69009;SHT31;56065;52.472;13.380;2023-05-08T06:09:51;11.91;67.07
69009;SHT31;56065;52.472;13.380;2023-05-08T06:12:17;12.48;65.93
69009;SHT31;56065;52.472;13.380;2023-05-08T06:14:43;13.25;65.00
69009;SHT31;56065;52.472;13.380;2023-05-08T06:17:08;13.89;62.88
69009;SHT31;56065;52.472;13.380;2023-05-08T06:19:33;14.70;60.94
69009;SHT31;56065;52.472;13.380;2023-05-08T06:21:59;15.19;59.03
69009;SHT31;56065;52.472;13.380;2023-05-08T06:24:24;15.60;57.20
69009;SHT31;56065;52.472;13.380;2023-05-08T06:26:50;16.48;58.76
69009;SHT31;56065;52.472;13.380;2023-05-08T06:29:15;17.71;55.64
69009;SHT31;56065;52.472;13.380;2023-05-08T06:31:41;18.10;51.86
69009;SHT31;56065;52.472;13.380;2023-05-08T06:34:06;18.01;51.29
69009;SHT31;56065;52.472;13.380;2023-05-08T06:36:32;17.70;51.48
69009;SHT31;56065;52.472;13.380;2023-05-08T06:38:57;17.96;52.49
69009;SHT31;56065;52.472;13.380;2023-05-08T06:41:23;18.57;50.64
69009;SHT31;56065;52.472;13.380;2023-05-08T06:43:48;19.55;50.69
69009;SHT31;56065;52.472;13.380;2023-05-08T06:46:13;20.00;47.19
69009;SHT31;56065;52.472;13.380;2023-05-08T06:48:39;19.82;47.22
69009;SHT31;56065;52.472;13.380;2023-05-08T06:51:05;20.48;49.02
69009;SHT31;56065;52.472;13.380;2023-05-08T06:53:30;21.15;45.85
69009;SHT31;56065;52.472;13.380;2023-05-08T06:55:55;20.76;45.17
69009;SHT31;56065;52.472;13.380;2023-05-08T06:58:23;20.69;45.92
69009;SHT31;56065;52.472;13.380;2023-05-08T07:00:48;21.53;46.52
69009;SHT31;56065;52.472;13.380;2023-05-08T07:03:14;22.26;45.53
69009;SHT31;56065;52.472;13.380;2023-05-08T07:05:39;23.89;43.75
69009;SHT31;56065;52.472;13.380;2023-05-08T07:08:05;25.07;41.87
69009;SHT31;56065;52.472;13.380;2023-05-08T07:10:30;26.51;41.15
69009;SHT31;56065;52.472;13.380;2023-05-08T07:12:56;26.71;38.83
69009;SHT31;56065;52.472;13.380;2023-05-08T07:15:21;27.17;37.52
69009;SHT31;56065;52.472;13.380;2023-05-08T07:17:46;26.82;35.82
69009;SHT31;56065;52.472;13.380;2023-05-08T07:20:12;25.80;37.17
69009;SHT31;56065;52.472;13.380;2023-05-08T07:22:37;26.21;37.75
69009;SHT31;56065;52.472;13.380;2023-05-08T07:25:03;27.30;37.53
69009;SHT31;56065;52.472;13.380;2023-05-08T07:27:29;28.62;37.03
69009;SHT31;56065;52.472;13.380;2023-05-08T07:29:54;27.44;33.66
69009;SHT31;56065;52.472;13.380;2023-05-08T07:32:21;27.90;33.85
69009;SHT31;56065;52.472;13.380;2023-05-08T07:34:47;27.27;34.67
69009;SHT31;56065;52.472;13.380;2023-05-08T07:37:12;26.27;34.63
69009;SHT31;56065;52.472;13.380;2023-05-08T07:39:38;26.04;34.93
69009;SHT31;56065;52.472;13.380;2023-05-08T07:42:03;25.31;36.03
69009;SHT31;56065;52.472;13.380;2023-05-08T07:44:30;26.20;35.40
69009;SHT31;56065;52.472;13.380;2023-05-08T07:46:57;25.97;34.60
69009;SHT31;56065;52.472;13.380;2023-05-08T07:49:23;26.88;35.40
69009;SHT31;56065;52.472;13.380;2023-05-08T07:51:48;27.77;33.38
69009;SHT31;56065;52.472;13.380;2023-05-08T07:54:14;28.55;33.39
69009;SHT31;56065;52.472;13.380;2023-05-08T07:56:39;28.80;33.17
69009;SHT31;56065;52.472;13.380;2023-05-08T07:59:04;29.07;32.36
69009;SHT31;56065;52.472;13.380;2023-05-08T08:01:30;29.69;32.14
69009;SHT31;56065;52.472;13.380;2023-05-08T08:03:55;28.51;32.13
69009;SHT31;56065;52.472;13.380;2023-05-08T08:06:20;28.46;32.86
69009;SHT31;56065;52.472;13.380;2023-05-08T08:08:46;28.32;33.47
69009;SHT31;56065;52.472;13.380;2023-05-08T08:11:11;28.48;32.97
69009;SHT31;56065;52.472;13.380;2023-05-08T08:13:36;29.53;32.83
69009;SHT31;56065;52.472;13.380;2023-05-08T08:16:02;29.10;33.18
69009;SHT31;56065;52.472;13.380;2023-05-08T08:18:28;29.23;31.71
69009;SHT31;56065;52.472;13.380;2023-05-08T08:20:54;28.44;31.98
69009;SHT31;56065;52.472;13.380;2023-05-08T08:23:19;28.02;32.16
69009;SHT31;56065;52.472;13.380;2023-05-08T08:25:44;28.52;32.35
69009;SHT31;56065;52.472;13.380;2023-05-08T08:28:10;29.44;32.66
69009;SHT31;56065;52.472;13.380;2023-05-08T08:30:35;29.44;31.48
69009;SHT31;56065;52.472;13.380;2023-05-08T08:33:00;30.96;30.65
69009;SHT31;56065;52.472;13.380;2023-05-08T08:35:27;32.23;29.58
69009;SHT31;56065;52.472;13.380;2023-05-08T08:37:56;31.22;28.91
69009;SHT31;56065;52.472;13.380;2023-05-08T08:40:22;29.99;30.39
69009;SHT31;56065;52.472;13.380;2023-05-08T08:42:47;28.79;30.27
69009;SHT31;56065;52.472;13.380;2023-05-08T08:45:13;29.21;32.63
69009;SHT31;56065;52.472;13.380;2023-05-08T08:47:39;29.47;29.86
69009;SHT31;56065;52.472;13.380;2023-05-08T08:50:08;29.85;30.36
69009;SHT31;56065;52.472;13.380;2023-05-08T08:52:59;29.68;30.23
69009;SHT31;56065;52.472;13.380;2023-05-08T08:55:25;29.43;30.09
69009;SHT31;56065;52.472;13.380;2023-05-08T08:58:05;29.13;30.75
69009;SHT31;56065;52.472;13.380;2023-05-08T09:00:32;27.85;30.61
69009;SHT31;56065;52.472;13.380;2023-05-08T09:03:00;27.54;31.33
69009;SHT31;56065;52.472;13.380;2023-05-08T09:05:26;27.81;32.95
69009;SHT31;56065;52.472;13.380;2023-05-08T09:07:55;28.28;32.57
69009;SHT31;56065;52.472;13.380;2023-05-08T09:10:22;29.10;30.84
69009;SHT31;56065;52.472;13.380;2023-05-08T09:12:48;28.29;31.86
69009;SHT31;56065;52.472;13.380;2023-05-08T09:15:13;29.00;32.58
69009;SHT31;56065;52.472;13.380;2023-05-08T09:17:39;29.38;30.84
69009;SHT31;56065;52.472;13.380;2023-05-08T09:20:06;29.08;30.15
69009;SHT31;56065;52.472;13.380;2023-05-08T09:22:31;28.08;30.70
69009;SHT31;56065;52.472;13.380;2023-05-08T09:25:00;28.25;31.63
69009;SHT31;56065;52.472;13.380;2023-05-08T09:27:27;28.77;30.44
69009;SHT31;56065;52.472;13.380;2023-05-08T09:30:07;28.69;31.01
69009;SHT31;56065;52.472;13.380;2023-05-08T09:32:35;30.17;30.18
69009;SHT31;56065;52.472;13.380;2023-05-08T09:35:02;30.61;30.13
69009;SHT31;56065;52.472;13.380;2023-05-08T09:37:28;30.48;29.86
69009;SHT31;56065;52.472;13.380;2023-05-08T09:39:54;31.66;29.41
69009;SHT31;56065;52.472;13.380;2023-05-08T09:42:22;31.83;28.83
69009;SHT31;56065;52.472;13.380;2023-05-08T09:44:51;31.07;28.83
69009;SHT31;56065;52.472;13.380;2023-05-08T09:47:20;29.76;29.44
69009;SHT31;56065;52.472;13.380;2023-05-08T09:50:09;30.19;30.95
69009;SHT31;56065;52.472;13.380;2023-05-08T09:52:36;30.30;29.33
69009;SHT31;56065;52.472;13.380;2023-05-08T09:55:07;29.62;29.75
69009;SHT31;56065;52.472;13.380;2023-05-08T09:57:35;29.99;30.52
69009;SHT31;56065;52.472;13.380;2023-05-08T10:00:08;30.17;29.27
69009;SHT31;56065;52.472;13.380;2023-05-08T10:02:35;30.20;29.81
69009;SHT31;56065;52.472;13.380;2023-05-08T10:05:01;30.16;29.07
69009;SHT31;56065;52.472;13.380;2023-05-08T10:07:31;31.10;29.60
69009;SHT31;56065;52.472;13.380;2023-05-08T10:10:01;30.47;28.68
69009;SHT31;56065;52.472;13.380;2023-05-08T10:12:27;30.22;28.88
69009;SHT31;56065;52.472;13.380;2023-05-08T10:14:53;29.35;29.87
69009;SHT31;56065;52.472;13.380;2023-05-08T10:17:24;29.38;29.64
69009;SHT31;56065;52.472;13.380;2023-05-08T10:19:54;29.72;29.93
69009;SHT31;56065;52.472;13.380;2023-05-08T10:22:21;31.14;28.61
69009;SHT31;56065;52.472;13.380;2023-05-08T10:24:49;31.84;29.27
69009;SHT31;56065;52.472;13.380;2023-05-08T10:27:19;32.34;28.57
69009;SHT31;56065;52.472;13.380;2023-05-08T10:29:53;33.50;27.67
69009;SHT31;56065;52.472;13.380;2023-05-08T10:32:22;33.30;27.49
69009;SHT31;56065;52.472;13.380;2023-05-08T10:35:08;33.19;27.40
69009;SHT31;56065;52.472;13.380;2023-05-08T10:37:35;33.73;26.93
69009;SHT31;56065;52.472;13.380;2023-05-08T10:40:01;33.12;27.04
69009;SHT31;56065;52.472;13.380;2023-05-08T10:42:27;32.74;28.11
69009;SHT31;56065;52.472;13.380;2023-05-08T10:44:54;32.74;27.34
69009;SHT31;56065;52.472;13.380;2023-05-08T10:52:43;33.05;27.03
69009;SHT31;56065;52.472;13.380;2023-05-08T10:55:30;33.46;26.85
69009;SHT31;56065;52.472;13.380;2023-05-08T11:03:23;33.73;27.09
69009;SHT31;56065;52.472;13.380;2023-05-08T11:05:51;33.70;26.76
69009;SHT31;56065;52.472;13.380;2023-05-08T11:08:17;33.37;26.02
69009;SHT31;56065;52.472;13.380;2023-05-08T11:10:50;32.43;26.16
69009;SHT31;56065;52.472;13.380;2023-05-08T11:13:18;32.95;26.63
69009;SHT31;56065;52.472;13.380;2023-05-08T11:15:51;33.37;26.01
69009;SHT31;56065;52.472;13.380;2023-05-08T11:18:16;33.39;26.68
69009;SHT31;56065;52.472;13.380;2023-05-08T11:21:02;32.47;26.94
69009;SHT31;56065;52.472;13.380;2023-05-08T11:23:30;31.34;27.61
69009;SHT31;56065;52.472;13.380;2023-05-08T11:26:02;31.80;27.81
69009;SHT31;56065;52.472;13.380;2023-05-08T11:28:39;31.47;28.11
69009;SHT31;56065;52.472;13.380;2023-05-08T11:31:06;31.25;27.59
69009;SHT31;56065;52.472;13.380;2023-05-08T11:33:34;31.08;29.39
69009;SHT31;56065;52.472;13.380;2023-05-08T11:36:12;31.46;28.19
69009;SHT31;56065;52.472;13.380;2023-05-08T11:38:39;31.87;28.01
69009;SHT31;56065;52.472;13.380;2023-05-08T11:41:24;32.07;28.01
69009;SHT31;56065;52.472;13.380;2023-05-08T11:48:58;33.02;27.49
69009;SHT31;56065;52.472;13.380;2023-05-08T11:51:29;33.63;27.04
69009;SHT31;56065;52.472;13.380;2023-05-08T11:53:55;32.71;27.25
69009;SHT31;56065;52.472;13.380;2023-05-08T11:56:21;32.40;28.10
69009;SHT31;56065;52.472;13.380;2023-05-08T11:58:47;32.51;27.75
69009;SHT31;56065;52.472;13.380;2023-05-08T12:01:18;32.88;27.50
69009;SHT31;56065;52.472;13.380;2023-05-08T12:03:44;33.46;27.50
69009;SHT31;56065;52.472;13.380;2023-05-08T12:06:09;33.49;26.85
69009;SHT31;56065;52.472;13.380;2023-05-08T12:08:38;32.85;26.29
69009;SHT31;56065;52.472;13.380;2023-05-08T12:11:03;31.87;27.45
69009;SHT31;56065;52.472;13.380;2023-05-08T12:13:29;31.84;27.58
69009;SHT31;56065;52.472;13.380;2023-05-08T12:15:59;32.14;29.25
69009;SHT31;56065;52.472;13.380;2023-05-08T12:18:26;31.58;27.38
69009;SHT31;56065;52.472;13.380;2023-05-08T12:20:58;32.12;27.80
69009;SHT31;56065;52.472;13.380;2023-05-08T12:23:27;32.12;27.48
69009;SHT31;56065;52.472;13.380;2023-05-08T12:25:54;32.09;26.85
69009;SHT31;56065;52.472;13.380;2023-05-08T12:28:20;32.03;28.59
69009;SHT31;56065;52.472;13.380;2023-05-08T12:30:46;31.41;28.49
69009;SHT31;56065;52.472;13.380;2023-05-08T12:33:11;31.58;27.36
69009;SHT31;56065;52.472;13.380;2023-05-08T12:35:40;32.00;28.11
69009;SHT31;56065;52.472;13.380;2023-05-08T12:38:06;31.47;27.85
69009;SHT31;56065;52.472;13.380;2023-05-08T12:40:44;31.82;28.76
69009;SHT31;56065;52.472;13.380;2023-05-08T12:43:10;32.02;28.49
69009;SHT31;56065;52.472;13.380;2023-05-08T12:45:38;31.50;28.11
69009;SHT31;56065;52.472;13.380;2023-05-08T12:48:13;31.18;28.69
69009;SHT31;56065;52.472;13.380;2023-05-08T12:50:44;30.67;29.04
69009;SHT31;56065;52.472;13.380;2023-05-08T12:53:16;30.60;29.91
69009;SHT31;56065;52.472;13.380;2023-05-08T12:55:55;31.01;28.99
69009;SHT31;56065;52.472;13.380;2023-05-08T12:58:29;31.58;28.05
69009;SHT31;56065;52.472;13.380;2023-05-08T13:01:11;31.01;28.27
69009;SHT31;56065;52.472;13.380;2023-05-08T13:03:38;31.98;28.07
69009;SHT31;56065;52.472;13.380;2023-05-08T13:06:04;31.93;27.15
69009;SHT31;56065;52.472;13.380;2023-05-08T13:08:32;31.14;28.71
69009;SHT31;56065;52.472;13.380;2023-05-08T13:10:59;29.99;28.87
69009;SHT31;56065;52.472;13.380;2023-05-08T13:13:26;29.50;29.48
69009;SHT31;56065;52.472;13.380;2023-05-08T13:15:54;29.18;29.32
69009;SHT31;56065;52.472;13.380;2023-05-08T13:18:22;29.17;30.29
69009;SHT31;56065;52.472;13.380;2023-05-08T13:20:48;29.41;30.74
69009;SHT31;56065;52.472;13.380;2023-05-08T13:23:13;29.39;29.72
69009;SHT31;56065;52.472;13.380;2023-05-08T13:25:39;29.71;29.23
69009;SHT31;56065;52.472;13.380;2023-05-08T13:28:06;28.63;29.60
69009;SHT31;56065;52.472;13.380;2023-05-08T13:30:33;29.15;29.06
69009;SHT31;56065;52.472;13.380;2023-05-08T13:32:59;29.35;29.46
69009;SHT31;56065;52.472;13.380;2023-05-08T13:35:25;29.10;28.80
69009;SHT31;56065;52.472;13.380;2023-05-08T13:37:52;28.57;29.79
69009;SHT31;56065;52.472;13.380;2023-05-08T13:40:18;28.70;29.53
69009;SHT31;56065;52.472;13.380;2023-05-08T13:42:43;28.46;29.06
69009;SHT31;56065;52.472;13.380;2023-05-08T13:45:09;28.19;29.98
69009;SHT31;56065;52.472;13.380;2023-05-08T13:47:41;28.69;30.72
69009;SHT31;56065;52.472;13.380;2023-05-08T13:50:08;29.39;29.62
69009;SHT31;56065;52.472;13.380;2023-05-08T13:52:35;29.90;28.35
69009;SHT31;56065;52.472;13.380;2023-05-08T13:55:00;29.81;29.06
69009;SHT31;56065;52.472;13.380;2023-05-08T13:57:26;29.53;28.20
69009;SHT31;56065;52.472;13.380;2023-05-08T13:59:51;29.57;28.51
69009;SHT31;56065;52.472;13.380;2023-05-08T14:02:16;29.14;29.02
69009;SHT31;56065;52.472;13.380;2023-05-08T14:04:42;29.23;28.50
69009;SHT31;56065;52.472;13.380;2023-05-08T14:07:07;28.52;28.96
69009;SHT31;56065;52.472;13.380;2023-05-08T14:09:32;27.87;29.87
69009;SHT31;56065;52.472;13.380;2023-05-08T14:11:58;27.73;30.25
69009;SHT31;56065;52.472;13.380;2023-05-08T14:14:23;27.40;30.41
69009;SHT31;56065;52.472;13.380;2023-05-08T14:16:49;27.33;30.33
69009;SHT31;56065;52.472;13.380;2023-05-08T14:19:16;27.29;29.68
69009;SHT31;56065;52.472;13.380;2023-05-08T14:21:43;27.12;30.47
69009;SHT31;56065;52.472;13.380;2023-05-08T14:24:08;27.09;30.29
69009;SHT31;56065;52.472;13.380;2023-05-08T14:26:33;27.27;30.39
69009;SHT31;56065;52.472;13.380;2023-05-08T14:28:59;27.95;30.48
69009;SHT31;56065;52.472;13.380;2023-05-08T14:31:24;28.15;30.11
69009;SHT31;56065;52.472;13.380;2023-05-08T14:33:49;28.01;30.89
69009;SHT31;56065;52.472;13.380;2023-05-08T14:36:15;28.12;30.52
69009;SHT31;56065;52.472;13.380;2023-05-08T14:38:40;28.05;30.65
69009;SHT31;56065;52.472;13.380;2023-05-08T14:41:06;28.24;30.14
69009;SHT31;56065;52.472;13.380;2023-05-08T14:43:31;28.25;30.16
69009;SHT31;56065;52.472;13.380;2023-05-08T14:45:56;28.84;30.84
69009;SHT31;56065;52.472;13.380;2023-05-08T14:48:22;28.97;29.86
69009;SHT31;56065;52.472;13.380;2023-05-08T14:50:48;28.53;30.31
69009;SHT31;56065;52.472;13.380;2023-05-08T14:53:13;27.97;31.35
69009;SHT31;56065;52.472;13.380;2023-05-08T14:55:38;27.51;31.85
69009;SHT31;56065;52.472;13.380;2023-05-08T14:58:04;26.78;30.98
69009;SHT31;56065;52.472;13.380;2023-05-08T15:00:29;26.88;30.42
69009;SHT31;56065;52.472;13.380;2023-05-08T15:02:54;26.55;31.94
69009;SHT31;56065;52.472;13.380;2023-05-08T15:05:20;26.30;31.21
69009;SHT31;56065;52.472;13.380;2023-05-08T15:07:45;26.14;31.60
69009;SHT31;56065;52.472;13.380;2023-05-08T15:10:11;26.03;32.90
69009;SHT31;56065;52.472;13.380;2023-05-08T15:12:36;25.85;30.69
69009;SHT31;56065;52.472;13.380;2023-05-08T15:15:01;25.77;31.85
69009;SHT31;56065;52.472;13.380;2023-05-08T15:17:27;25.75;32.42
69009;SHT31;56065;52.472;13.380;2023-05-08T15:19:52;25.63;31.95
69009;SHT31;56065;52.472;13.380;2023-05-08T15:22:18;25.56;31.97
69009;SHT31;56065;52.472;13.380;2023-05-08T15:24:43;25.16;32.55
69009;SHT31;56065;52.472;13.380;2023-05-08T15:27:08;24.81;32.31
69009;SHT31;56065;52.472;13.380;2023-05-08T15:29:35;24.47;33.47
69009;SHT31;56065;52.472;13.380;2023-05-08T15:32:01;24.32;33.53
69009;SHT31;56065;52.472;13.380;2023-05-08T15:34:26;24.01;34.10
69009;SHT31;56065;52.472;13.380;2023-05-08T15:36:52;23.90;34.59
69009;SHT31;56065;52.472;13.380;2023-05-08T15:39:17;23.48;35.43
69009;SHT31;56065;52.472;13.380;2023-05-08T15:41:43;23.45;34.68
69009;SHT31;56065;52.472;13.380;2023-05-08T15:44:08;22.97;35.09
69009;SHT31;56065;52.472;13.380;2023-05-08T15:46:34;23.14;35.54
69009;SHT31;56065;52.472;13.380;2023-05-08T15:48:59;23.13;35.78
69009;SHT31;56065;52.472;13.380;2023-05-08T15:51:24;22.86;34.97
69009;SHT31;56065;52.472;13.380;2023-05-08T15:53:50;22.36;35.27
69009;SHT31;56065;52.472;13.380;2023-05-08T15:56:17;21.95;35.88
69009;SHT31;56065;52.472;13.380;2023-05-08T15:58:43;21.63;36.31
69009;SHT31;56065;52.472;13.380;2023-05-08T16:01:09;21.58;37.22
69009;SHT31;56065;52.472;13.380;2023-05-08T16:03:34;21.25;36.43
69009;SHT31;56065;52.472;13.380;2023-05-08T16:05:59;21.18;36.74